createdAt,value
2022-12-08T00:03:51.338Z,76.85
2022-12-08T00:08:50.521Z,77.06
2022-12-08T00:13:52.643Z,76.85
2022-12-08T00:18:51.786Z,75.85
2022-12-08T00:23:52.926Z,76.06
2022-12-08T00:28:54.076Z,76.57
2022-12-08T00:33:55.288Z,76.47
2022-12-08T00:38:57.402Z,76.37
2022-12-08T00:43:57.551Z,76.26
2022-12-08T00:48:56.715Z,76.19
2022-12-08T00:53:57.849Z,76.51
2022-12-08T00:58:58.996Z,76.19
2022-12-08T01:04:00.153Z,76.51
2022-12-08T01:09:01.297Z,76.64
2022-12-08T01:14:02.406Z,76.95
2022-12-08T01:19:03.535Z,77.37
2022-12-08T01:24:04.688Z,77.72
2022-12-08T01:29:05.824Z,78.45
2022-12-08T01:34:06.951Z,79.28
2022-12-08T01:39:08.120Z,80.05
2022-12-08T01:44:09.234Z,80.05
2022-12-08T01:49:10.365Z,79.21
2022-12-08T01:54:11.779Z,76.89
2022-12-08T01:59:12.889Z,76.16
2022-12-08T02:04:14.056Z,75.74
2022-12-08T02:09:15.199Z,76.57
2022-12-08T02:14:17.310Z,77.34
2022-12-08T02:19:32.784Z,78.07
2022-12-08T02:24:17.420Z,77.96
2022-12-08T02:29:20.550Z,77.75
2022-12-08T02:34:20.671Z,77.96
2022-12-08T02:39:19.819Z,78.69
2022-12-08T02:44:20.925Z,78.00
2022-12-08T02:49:23.016Z,78.00
2022-12-08T02:54:21.141Z,78.31
2022-12-08T02:59:21.255Z,79.14
2022-12-08T03:04:22.382Z,78.73
2022-12-08T03:09:23.762Z,77.37
2022-12-08T03:14:24.933Z,77.17
2022-12-08T03:19:26.284Z,76.86
2022-12-08T03:24:27.402Z,76.54
2022-12-08T03:29:29.515Z,76.68
2022-12-08T03:34:28.661Z,76.68
2022-12-08T03:39:30.774Z,76.82
2022-12-08T03:44:30.896Z,77.03
2022-12-08T03:49:30.022Z,77.34
2022-12-08T03:54:31.157Z,77.34
2022-12-08T03:59:32.279Z,76.09
2022-12-08T04:04:33.412Z,75.88
2022-12-08T04:09:34.572Z,76.09
2022-12-08T04:14:34.713Z,76.30
2022-12-08T04:19:36.798Z,76.96
2022-12-08T04:24:35.963Z,77.62
2022-12-08T04:29:37.382Z,78.56
2022-12-08T04:34:38.537Z,78.66
2022-12-08T04:39:39.630Z,80.30
2022-12-08T04:44:41.765Z,79.99
2022-12-08T04:49:40.925Z,80.51
2022-12-08T04:54:42.068Z,81.49
2022-12-08T04:59:43.177Z,81.95
2022-12-08T05:04:44.280Z,82.15
2022-12-08T05:09:46.431Z,82.22
2022-12-08T05:14:45.592Z,82.67
2022-12-08T05:19:46.690Z,83.40
2022-12-08T05:24:48.102Z,84.07
2022-12-08T05:29:49.211Z,82.92
2022-12-08T05:34:50.351Z,82.86
2022-12-08T05:39:52.504Z,83.27
2022-12-08T05:44:51.664Z,83.48
2022-12-08T05:49:53.769Z,83.48
2022-12-08T05:54:52.951Z,83.80
2022-12-08T05:59:54.080Z,84.05
2022-12-08T06:04:54.211Z,83.94
2022-12-08T06:09:56.346Z,83.48
2022-12-08T06:14:55.577Z,83.06
2022-12-08T06:19:56.723Z,82.60
2022-12-08T06:24:58.844Z,82.75
2022-12-08T06:29:58.983Z,83.59
2022-12-08T06:34:58.113Z,84.28
2022-12-08T06:39:59.561Z,83.76
2022-12-08T06:45:00.743Z,85.05
2022-12-08T06:50:02.180Z,84.95
2022-12-08T06:55:02.549Z,84.03
2022-12-08T07:00:03.330Z,82.01
2022-12-08T07:05:03.778Z,77.86
2022-12-08T07:10:03.295Z,79.95
2022-12-08T07:15:02.649Z,77.62
2022-12-08T07:20:04.130Z,78.45
2022-12-08T07:25:03.483Z,79.29
2022-12-08T07:30:05.895Z,81.06
2022-12-08T07:35:05.259Z,80.44
2022-12-08T07:40:06.716Z,77.31
2022-12-08T07:45:06.108Z,76.26
2022-12-08T07:50:08.431Z,77.06
2022-12-08T07:55:07.626Z,76.82
2022-12-08T08:00:08.829Z,76.06
2022-12-08T08:05:10.104Z,75.26
2022-12-08T08:10:11.321Z,74.91
2022-12-08T08:15:12.457Z,74.39
2022-12-08T08:20:13.628Z,74.39
2022-12-08T08:25:15.798Z,74.98
2022-12-08T08:30:20.348Z,73.70
2022-12-08T08:35:15.891Z,73.46
2022-12-08T08:40:17.045Z,72.52
2022-12-08T08:45:20.211Z,71.34
2022-12-08T08:50:19.439Z,68.44
2022-12-08T08:55:20.615Z,69.40
2022-12-08T09:00:23.758Z,69.40
2022-12-08T09:05:22.911Z,70.20
2022-12-08T09:10:24.127Z,69.45
2022-12-08T09:15:25.358Z,71.49
2022-12-08T09:20:26.552Z,69.59
2022-12-08T09:25:28.682Z,69.38
2022-12-08T09:30:28.862Z,69.38
2022-12-08T09:35:28.031Z,69.17
2022-12-08T09:40:30.177Z,68.96
2022-12-08T09:45:29.327Z,69.56
2022-12-08T09:50:31.475Z,70.18
2022-12-08T09:55:30.635Z,69.97
2022-12-08T10:00:32.777Z,69.42
2022-12-08T10:05:31.944Z,69.70
2022-12-08T10:10:33.060Z,69.77
2022-12-08T10:15:34.230Z,67.98
2022-12-08T10:20:35.358Z,68.49
2022-12-08T10:25:36.469Z,67.49
2022-12-08T10:30:39.639Z,69.15
2022-12-08T10:35:38.777Z,67.88
2022-12-08T10:40:45.609Z,68.08
2022-12-08T10:45:41.858Z,67.94
2022-12-08T10:50:42.061Z,66.77
2022-12-08T10:55:41.187Z,70.11
2022-12-08T11:00:42.432Z,70.15
2022-12-08T11:05:43.613Z,66.42
2022-12-08T11:10:45.852Z,64.32
2022-12-08T11:15:44.943Z,64.61
2022-12-08T11:20:46.088Z,66.09
2022-12-08T11:25:47.200Z,63.78
2022-12-08T11:30:48.427Z,65.23
2022-12-08T11:35:49.563Z,64.89
2022-12-08T11:40:51.721Z,63.07
2022-12-08T11:45:50.885Z,63.39
2022-12-08T11:50:53.137Z,63.25
2022-12-08T11:55:52.252Z,63.56
2022-12-08T12:00:53.419Z,63.04
2022-12-08T12:06:13.090Z,62.46
2022-12-08T12:10:54.586Z,62.43
2022-12-08T12:15:54.740Z,61.88
2022-12-08T12:20:56.957Z,61.66
2022-12-08T12:25:56.151Z,63.04
2022-12-08T12:30:57.377Z,63.67
2022-12-08T12:35:59.540Z,63.01
2022-12-08T12:40:58.672Z,62.92
2022-12-08T12:45:59.855Z,64.18
2022-12-08T12:51:00.978Z,66.23
2022-12-08T12:56:01.120Z,66.81
2022-12-08T13:01:02.270Z,67.77
2022-12-08T13:06:03.439Z,68.01
2022-12-08T13:11:04.593Z,69.70
2022-12-08T13:16:15.740Z,69.73
2022-12-08T13:21:06.068Z,69.63
2022-12-08T13:26:08.254Z,72.46
2022-12-08T13:31:07.506Z,71.42
2022-12-08T13:36:08.704Z,70.70
2022-12-08T13:41:09.894Z,70.49
2022-12-08T13:46:57.917Z,72.56
2022-12-08T14:01:12.036Z,73.39
2022-12-08T14:06:13.007Z,74.36
2022-12-08T14:11:12.478Z,74.91
2022-12-08T14:16:13.737Z,76.16
2022-12-08T14:21:22.270Z,77.47
2022-12-08T14:26:15.898Z,77.12
2022-12-08T14:31:15.160Z,76.92
2022-12-08T14:36:16.364Z,77.75
2022-12-08T14:41:17.496Z,77.89
2022-12-08T14:46:17.727Z,77.68
2022-12-08T14:51:18.872Z,79.21
2022-12-08T14:56:20.056Z,79.48
2022-12-08T15:01:23.278Z,79.52
2022-12-08T15:06:22.615Z,80.29
2022-12-08T15:11:23.767Z,80.70
2022-12-08T15:16:24.994Z,80.77
2022-12-08T15:21:26.183Z,81.50
2022-12-08T15:26:27.342Z,82.89
2022-12-08T15:31:28.491Z,84.35
2022-12-08T15:36:29.635Z,84.31
2022-12-08T15:41:30.754Z,84.31
2022-12-08T15:46:31.928Z,83.94
2022-12-08T15:51:33.135Z,84.18
2022-12-08T15:56:34.484Z,85.05
2022-12-08T16:01:35.617Z,86.03
2022-12-08T16:12:04.418Z,86.69
2022-12-08T16:16:35.145Z,87.37
2022-12-08T16:27:50.865Z,87.30
2022-12-08T16:31:36.285Z,87.30
2022-12-08T16:36:37.505Z,87.71
2022-12-08T16:41:38.795Z,87.23
2022-12-08T16:46:40.051Z,89.11
2022-12-08T16:51:40.351Z,89.01
2022-12-08T16:56:42.538Z,88.28
2022-12-08T17:01:41.766Z,88.84
2022-12-08T17:06:42.048Z,88.78
2022-12-08T17:11:44.052Z,88.99
2022-12-08T17:16:43.505Z,89.34
2022-12-08T17:21:44.757Z,89.93
2022-12-08T17:26:45.943Z,90.70
2022-12-08T17:31:47.165Z,90.84
2022-12-08T17:36:48.460Z,91.75
2022-12-08T17:41:49.644Z,91.02
2022-12-08T17:46:53.253Z,90.70
2022-12-08T17:51:51.714Z,90.64
2022-12-08T17:56:52.539Z,90.84
2022-12-08T18:01:52.103Z,91.31
2022-12-08T18:06:52.625Z,92.77
2022-12-08T18:11:53.004Z,93.30
2022-12-08T18:16:52.235Z,92.98
2022-12-08T18:21:53.414Z,93.88
2022-12-08T18:26:54.596Z,93.57
2022-12-08T18:31:56.806Z,93.78
2022-12-08T18:36:56.178Z,93.61
2022-12-08T18:41:58.492Z,93.93
2022-12-08T18:46:58.812Z,93.46
2022-12-08T18:51:58.036Z,93.88
2022-12-08T18:56:59.434Z,93.99
2022-12-08T19:01:59.895Z,93.78
2022-12-08T19:06:59.470Z,92.69
2022-12-08T19:12:00.125Z,91.87
2022-12-08T19:17:02.277Z,92.08
2022-12-08T19:22:00.913Z,91.87
2022-12-08T19:27:02.236Z,91.31
2022-12-08T19:32:03.598Z,90.06
2022-12-08T19:37:04.852Z,91.60
2022-12-08T19:42:06.270Z,92.69
2022-12-08T19:47:06.890Z,92.75
2022-12-08T19:52:06.373Z,92.69
2022-12-08T19:57:05.640Z,92.23
2022-12-08T20:02:07.920Z,92.27
2022-12-08T20:07:07.438Z,91.08
2022-12-08T20:12:06.861Z,89.58
2022-12-08T20:17:08.340Z,88.80
2022-12-08T20:22:10.604Z,90.58
2022-12-08T20:27:09.767Z,90.62
2022-12-08T20:32:11.282Z,89.95
2022-12-08T20:37:10.663Z,88.80
2022-12-08T20:42:12.101Z,87.61
2022-12-08T20:47:13.530Z,89.11
2022-12-08T20:52:14.798Z,89.07
2022-12-08T20:57:16.108Z,89.39
2022-12-08T21:02:17.557Z,90.06
2022-12-08T21:07:18.077Z,90.16
2022-12-08T21:12:17.322Z,90.85
2022-12-08T21:17:18.622Z,90.12
2022-12-08T21:22:19.894Z,88.65
2022-12-08T21:27:21.036Z,88.87
2022-12-08T21:32:27.217Z,88.93
2022-12-08T21:37:23.191Z,89.28
2022-12-08T21:42:27.949Z,89.59
2022-12-08T21:47:25.619Z,90.68
2022-12-08T21:52:24.789Z,90.78
2022-12-08T21:57:26.022Z,91.66
2022-12-08T22:02:28.366Z,91.41
2022-12-08T22:07:27.986Z,90.89
2022-12-08T22:12:29.481Z,90.64
2022-12-08T22:17:28.876Z,90.08
2022-12-08T22:22:28.130Z,89.18
2022-12-08T22:27:29.386Z,91.06
2022-12-08T22:32:30.574Z,91.31
2022-12-08T22:37:31.774Z,91.56
2022-12-08T22:42:33.048Z,91.94
2022-12-08T22:47:35.266Z,92.96
2022-12-08T22:52:34.603Z,92.82
2022-12-08T22:57:35.999Z,92.82
2022-12-08T23:02:37.149Z,92.66
2022-12-08T23:07:39.621Z,91.83
2022-12-08T23:12:39.847Z,92.66
2022-12-08T23:17:39.168Z,92.46
2022-12-08T23:22:40.451Z,92.77
2022-12-08T23:27:41.573Z,91.69
2022-12-08T23:32:42.923Z,90.85
2022-12-08T23:37:45.111Z,90.85
2022-12-08T23:42:44.246Z,92.29
2022-12-08T23:47:46.582Z,92.46
2022-12-08T23:52:45.905Z,91.27
2022-12-08T23:57:47.269Z,92.25
